Time;durP1;ratioP1;P1;durP2;ratioP2;P2;SDS_P1;SDS_P2;PMS_P1;PMS_P2;Temp;Humidity;BMP_temperature;BMP_pressure;BME280_temperature;BME280_humidity;BME280_pressure;Samples;Min_cycle;Max_cycle;Signal;HPM_P1;HPM_P2
2021/03/17 00:00:44;;;;;;;3.10;2.08;;;;;;;-0.56;83.10;101969.53;6184536;23;20012;-80
2021/03/17 00:03:10;;;;;;;5.35;1.90;;;;;;;-0.56;83.19;101955.47;6185979;23;20308;-80
2021/03/17 00:05:37;;;;;;;2.88;1.90;;;;;;;-0.62;83.42;101953.22;6185281;23;20008;-80
2021/03/17 00:08:03;;;;;;;4.55;1.80;;;;;;;-0.54;83.06;101975.53;6185837;23;20099;-80
2021/03/17 00:10:33;;;;;;;5.10;1.70;;;;;;;-0.68;83.29;101951.81;6184453;23;20051;-80
2021/03/17 00:12:59;;;;;;;2.60;1.70;;;;;;;-0.58;83.26;101976.69;6185802;23;20404;-81
2021/03/17 00:15:29;;;;;;;3.92;1.80;;;;;;;-0.60;83.31;101975.94;6187277;23;20037;-80
2021/03/17 00:17:55;;;;;;;4.60;1.60;;;;;;;-0.61;82.90;101976.03;6186534;23;20005;-80
2021/03/17 00:20:28;;;;;;;2.53;1.30;;;;;;;-0.62;83.18;101971.72;6186306;23;20048;-80
2021/03/17 00:22:55;;;;;;;2.92;1.60;;;;;;;-0.61;83.38;101976.88;6184584;23;20064;-80
2021/03/17 00:25:32;;;;;;;3.40;1.70;;;;;;;-0.60;83.31;101972.44;6161104;23;20016;-80
2021/03/17 00:28:02;;;;;;;3.13;1.40;;;;;;;-0.62;83.09;101972.56;6185876;23;20351;-80
2021/03/17 00:30:32;;;;;;;2.30;1.70;;;;;;;-0.65;83.07;101970.09;6137426;23;20020;-80
2021/03/17 00:32:59;;;;;;;4.20;1.50;;;;;;;-0.56;83.28;101980.09;6186863;23;20001;-80
2021/03/17 00:35:28;;;;;;;4.10;1.60;;;;;;;-0.60;83.59;101973.28;6187598;23;20009;-80
2021/03/17 00:37:54;;;;;;;4.32;1.33;;;;;;;-0.61;83.33;101968.97;6162861;23;20404;-80
2021/03/17 00:40:20;;;;;;;4.70;2.00;;;;;;;-0.49;83.12;101985.84;6162791;23;20055;-80
2021/03/17 00:42:46;;;;;;;4.50;1.67;;;;;;;-0.49;83.31;101991.97;6186837;23;20067;-80
2021/03/17 00:45:12;;;;;;;3.75;2.20;;;;;;;-0.35;82.90;102004.31;6186504;23;20078;-80
2021/03/17 00:47:38;;;;;;;3.15;1.98;;;;;;;-0.35;82.86;101999.00;6188259;23;20025;-81
2021/03/17 00:50:08;;;;;;;3.53;1.75;;;;;;;-0.33;83.20;102002.41;6189860;23;20359;-79
2021/03/17 00:52:34;;;;;;;3.33;1.83;;;;;;;-0.35;83.47;102006.09;6188283;23;20004;-80
2021/03/17 00:54:59;;;;;;;4.85;1.90;;;;;;;-0.51;83.02;101969.22;6186603;23;20091;-80
2021/03/17 00:57:26;;;;;;;3.03;2.17;;;;;;;-0.33;83.23;101998.91;6186249;23;20009;-80
2021/03/17 00:59:52;;;;;;;4.28;2.40;;;;;;;-0.38;83.53;101987.78;6162010;23;20032;-80
2021/03/17 01:02:17;;;;;;;4.60;2.40;;;;;;;-0.51;83.12;101971.88;6161191;23;20013;-80
2021/03/17 01:04:43;;;;;;;3.35;2.40;;;;;;;-0.30;83.37;101996.06;6161676;23;20005;-80
2021/03/17 01:07:14;;;;;;;3.20;1.90;;;;;;;-0.19;83.26;102013.91;6187135;23;20013;-80
2021/03/17 01:09:40;;;;;;;4.88;2.50;;;;;;;-0.29;83.33;101993.34;6186691;23;20017;-80
2021/03/17 01:12:08;;;;;;;4.00;2.03;;;;;;;-0.64;83.43;101939.22;6188407;23;20359;-81
2021/03/17 01:14:34;;;;;;;4.00;2.30;;;;;;;-0.12;83.39;102029.28;6162184;23;20008;-80
2021/03/17 01:16:59;;;;;;;6.45;2.15;;;;;;;-0.09;83.09;102029.06;6163202;23;20013;-80
2021/03/17 01:19:25;;;;;;;3.70;2.50;;;;;;;-0.07;83.47;102032.44;6187945;23;20085;-81
2021/03/17 01:21:50;;;;;;;4.68;2.67;;;;;;;-0.04;83.42;102032.25;6187667;23;20016;-80
2021/03/17 01:24:16;;;;;;;6.50;2.45;;;;;;;-0.01;83.34;102032.06;6187453;23;20453;-80
2021/03/17 01:26:41;;;;;;;6.55;2.67;;;;;;;0.06;83.48;102026.38;6161951;23;20017;-80
2021/03/17 01:29:06;;;;;;;3.83;2.20;;;;;;;0.12;83.49;102036.56;6186905;23;20396;-81
2021/03/17 01:31:32;;;;;;;4.85;2.28;;;;;;;0.06;83.07;102021.91;6137547;23;20292;-81
2021/03/17 01:33:57;;;;;;;5.75;2.38;;;;;;;0.11;82.98;102021.63;6185423;23;20013;-80
2021/03/17 01:36:23;;;;;;;5.00;2.30;;;;;;;0.05;83.12;102006.16;6137739;23;20020;-81
2021/03/17 01:38:48;;;;;;;5.20;3.33;;;;;;;0.18;83.52;102029.06;6137437;23;20071;-80
2021/03/17 01:41:14;;;;;;;3.95;2.30;;;;;;;0.16;82.98;102020.34;6186443;23;20078;-80
2021/03/17 01:43:39;;;;;;;6.47;2.30;;;;;;;0.18;82.89;102025.56;6190039;23;20009;-80
2021/03/17 01:46:05;;;;;;;3.60;2.00;;;;;;;0.13;83.06;102004.72;6188842;23;20013;-80
2021/03/17 01:48:30;;;;;;;4.63;2.20;;;;;;;0.25;83.40;102024.19;6185791;23;20087;-80
2021/03/17 01:50:58;;;;;;;4.70;2.08;;;;;;;0.26;83.37;102028.53;6161842;23;20067;-80
2021/03/17 01:53:30;;;;;;;4.32;2.40;;;;;;;0.23;83.23;102021.66;6187263;23;20005;-80
2021/03/17 01:55:56;;;;;;;3.05;1.80;;;;;;;0.14;83.55;101998.44;6187392;23;20027;-79
2021/03/17 01:58:22;;;;;;;4.25;2.10;;;;;;;0.26;83.42;102025.88;6187392;23;20004;-80
2021/03/17 02:00:48;;;;;;;3.40;2.00;;;;;;;0.26;83.37;102028.53;6187825;23;20095;-81
2021/03/17 02:03:14;;;;;;;7.43;2.30;;;;;;;0.25;83.42;102026.00;6186746;23;20292;-80
2021/03/17 02:05:45;;;;;;;4.47;2.63;;;;;;;0.20;83.30;102026.31;6185967;23;20011;-80
2021/03/17 02:08:23;;;;;;;5.55;2.10;;;;;;;-0.24;83.14;101948.06;6187468;23;20005;-81
2021/03/17 02:10:50;;;;;;;3.85;1.80;;;;;;;0.27;83.37;102029.41;6187977;23;20005;-80
2021/03/17 02:13:37;;;;;;;4.15;1.98;;;;;;;0.27;83.05;102034.69;6161453;23;20136;-80
2021/03/17 02:16:42;;;;;;;2.97;1.90;;;;;;;0.25;83.31;102041.88;6185646;23;20032;-80
2021/03/17 02:19:28;;;;;;;5.88;2.33;;;;;;;0.25;83.25;102037.44;6156878;23;20005;-81
2021/03/17 02:22:12;;;;;;;4.43;2.20;;;;;;;0.21;83.14;102043.88;6187364;23;20000;-80
2021/03/17 02:25:10;;;;;;;3.35;2.08;;;;;;;0.17;82.75;102043.25;6187583;23;20008;-80
2021/03/17 02:27:41;;;;;;;2.78;2.00;;;;;;;0.15;83.09;102045.13;6186649;23;20015;-80
2021/03/17 02:30:22;;;;;;;3.17;1.90;;;;;;;0.17;82.86;102050.34;6186766;23;20005;-80
2021/03/17 02:33:26;;;;;;;3.72;2.10;;;;;;;0.15;83.28;102053.06;6185833;23;20028;-79
2021/03/17 02:35:59;;;;;;;3.33;1.90;;;;;;;0.17;83.34;102047.69;6186187;23;20421;-80
2021/03/17 02:38:27;;;;;;;3.28;1.98;;;;;;;0.15;82.92;102054.88;6188543;23;20340;-80
2021/03/17 02:40:56;;;;;;;4.30;2.08;;;;;;;0.22;82.67;102059.66;6189912;23;20013;-80
2021/03/17 02:43:27;;;;;;;5.43;2.00;;;;;;;0.08;82.76;102040.34;6188219;23;20051;-81
2021/03/17 02:45:59;;;;;;;3.25;1.90;;;;;;;0.12;83.11;102053.28;6187672;23;20043;-80
2021/03/17 02:48:42;;;;;;;2.42;1.90;;;;;;;0.05;82.67;102040.56;6185965;23;20319;-80
2021/03/17 02:51:16;;;;;;;5.15;1.92;;;;;;;0.05;83.11;102048.50;6187319;23;20437;-80
2021/03/17 02:53:43;;;;;;;6.00;2.00;;;;;;;0.09;83.07;102056.13;6186019;23;20016;-81
2021/03/17 02:56:14;;;;;;;5.60;2.05;;;;;;;-0.02;83.40;102037.47;6136669;23;20005;-80
2021/03/17 02:58:45;;;;;;;4.43;2.13;;;;;;;0.04;82.96;102052.09;6184946;23;20009;-80
2021/03/17 03:01:15;;;;;;;3.85;2.17;;;;;;;-0.04;83.17;102048.13;6188231;23;20080;-80
2021/03/17 03:03:41;;;;;;;3.20;1.88;;;;;;;-0.01;83.79;102055.88;6186820;23;20001;-80
2021/03/17 03:06:09;;;;;;;6.22;2.05;;;;;;;-0.13;83.75;102040.81;6160605;23;20364;-80
2021/03/17 03:08:37;;;;;;;3.67;2.03;;;;;;;0.02;83.20;102059.28;6186209;23;20346;-81
2021/03/17 03:11:06;;;;;;;4.65;2.15;;;;;;;0.05;83.24;102056.44;6186260;23;20066;-80
2021/03/17 03:13:32;;;;;;;3.92;1.92;;;;;;;0.02;83.31;102044.25;6161567;23;20025;-81
2021/03/17 03:15:59;;;;;;;5.07;1.90;;;;;;;0.08;83.46;102054.44;6161870;23;20013;-80
2021/03/17 03:18:25;;;;;;;4.20;1.73;;;;;;;0.08;83.64;102061.53;6160807;23;20019;-80
2021/03/17 03:20:53;;;;;;;3.75;1.67;;;;;;;0.10;83.40;102062.25;6186084;23;20013;-80
2021/03/17 03:23:20;;;;;;;3.50;1.40;;;;;;;0.08;83.50;102066.81;6161242;23;20095;-80
2021/03/17 03:25:47;;;;;;;4.03;2.10;;;;;;;0.08;83.50;102075.59;6185775;23;20005;-80
2021/03/17 03:28:14;;;;;;;7.50;1.85;;;;;;;0.03;83.43;102071.53;6185747;23;20012;-80
2021/03/17 03:30:44;;;;;;;3.15;1.33;;;;;;;-0.38;83.26;102003.66;6185840;23;20032;-80
2021/03/17 03:33:10;;;;;;;3.17;1.70;;;;;;;0.07;83.26;102073.91;6189082;23;20000;-80
2021/03/17 03:35:38;;;;;;;2.30;1.38;;;;;;;0.10;83.08;102076.38;6189461;23;20012;-80
2021/03/17 03:38:06;;;;;;;2.92;1.40;;;;;;;0.11;82.93;102082.50;6186986;23;20005;-80
2021/03/17 03:40:32;;;;;;;3.92;1.48;;;;;;;0.11;82.81;102070.13;6186960;23;20016;-80
2021/03/17 03:42:58;;;;;;;5.53;1.50;;;;;;;0.14;83.10;102079.66;6185919;23;20009;-80
2021/03/17 03:45:23;;;;;;;2.95;1.67;;;;;;;0.16;83.13;102073.28;6185189;23;20503;-81
2021/03/17 03:47:49;;;;;;;5.43;1.67;;;;;;;0.17;83.18;102079.47;6161398;23;20020;-80
2021/03/17 03:50:36;;;;;;;4.88;1.48;;;;;;;0.14;83.07;102075.22;6160676;23;20013;-80
2021/03/17 03:53:16;;;;;;;3.55;1.42;;;;;;;0.13;83.22;102070.88;6186598;23;20068;-80
2021/03/17 03:56:02;;;;;;;2.88;1.52;;;;;;;0.06;82.98;102060.75;6186228;23;20088;-80
2021/03/17 03:58:32;;;;;;;4.70;1.45;;;;;;;-0.01;82.96;102042.63;6188653;23;20020;-81
2021/03/17 04:01:23;;;;;;;2.83;1.05;;;;;;;0.06;83.08;102061.59;6195988;23;20035;-81
2021/03/17 04:03:55;;;;;;;1.88;1.30;;;;;;;0.05;83.20;102065.22;6185582;23;20005;-81
2021/03/17 04:06:24;;;;;;;2.97;1.50;;;;;;;0.10;83.30;102080.78;6186898;23;20001;-80
2021/03/17 04:08:52;;;;;;;4.45;1.25;;;;;;;0.03;83.21;102072.41;6187170;23;20009;-80
2021/03/17 04:11:18;;;;;;;4.43;1.30;;;;;;;0.10;82.98;102089.59;6184780;23;20015;-80
2021/03/17 04:13:46;;;;;;;3.33;1.20;;;;;;;0.03;82.71;102079.50;6184560;23;20039;-81
2021/03/17 04:16:13;;;;;;;4.00;1.42;;;;;;;0.08;83.19;102095.94;6186560;23;20020;-80
2021/03/17 04:18:44;;;;;;;1.98;1.30;;;;;;;0.02;82.87;102085.75;6185458;23;20013;-80
2021/03/17 04:21:16;;;;;;;3.08;1.30;;;;;;;0.07;83.05;102091.59;6186749;23;20314;-79
2021/03/17 04:23:45;;;;;;;2.55;1.20;;;;;;;0.09;83.18;102089.69;6185982;23;20028;-80
2021/03/17 04:26:11;;;;;;;3.38;1.20;;;;;;;0.10;82.94;102089.59;6189443;23;20001;-80
2021/03/17 04:28:39;;;;;;;2.28;1.20;;;;;;;0.11;83.12;102103.69;6161097;23;20008;-80
2021/03/17 04:31:05;;;;;;;2.42;1.35;;;;;;;0.13;82.59;102101.75;6185425;23;20395;-80
2021/03/17 04:33:32;;;;;;;2.55;1.20;;;;;;;0.15;82.80;102107.81;6185479;23;20007;-81
2021/03/17 04:36:00;;;;;;;2.03;1.20;;;;;;;0.04;82.76;102094.44;6161183;23;20013;-79
2021/03/17 04:38:27;;;;;;;2.75;1.40;;;;;;;0.05;83.00;102106.72;6185956;23;20097;-80
2021/03/17 04:40:55;;;;;;;1.92;1.30;;;;;;;0.02;82.97;102104.25;6186519;23;20009;-80
2021/03/17 04:43:21;;;;;;;4.03;1.30;;;;;;;-0.06;82.93;102094.19;6185574;23;20395;-80
2021/03/17 04:45:49;;;;;;;2.35;1.30;;;;;;;-0.19;83.00;102070.31;6186472;23;20006;-79
2021/03/17 04:48:14;;;;;;;2.92;1.30;;;;;;;-0.44;82.76;102030.50;6184322;23;20009;-80
2021/03/17 04:50:41;;;;;;;6.60;1.50;;;;;;;0.01;82.83;102108.72;6160987;23;20036;-80
2021/03/17 04:53:12;;;;;;;3.10;1.35;;;;;;;0.06;83.04;102119.84;6184201;23;20281;-80
2021/03/17 04:55:38;;;;;;;3.72;1.45;;;;;;;0.02;82.88;102120.97;6185890;23;20020;-80
2021/03/17 04:58:09;;;;;;;2.78;1.33;;;;;;;-0.04;82.87;102110.78;6186647;23;20000;-80
2021/03/17 05:00:37;;;;;;;4.72;1.35;;;;;;;-0.12;82.89;102111.28;6185280;23;20001;-80
2021/03/17 05:03:06;;;;;;;5.10;1.23;;;;;;;-0.05;82.47;102122.31;6159846;23;20052;-80
2021/03/17 05:05:33;;;;;;;2.25;1.27;;;;;;;-0.17;82.43;102104.56;6185534;23;20009;-80
2021/03/17 05:08:06;;;;;;;2.63;1.38;;;;;;;-0.22;82.00;102090.81;6185245;23;20084;-80
2021/03/17 05:10:33;;;;;;;2.28;1.27;;;;;;;-0.08;81.21;102128.66;6187063;23;20020;-80
2021/03/17 05:12:59;;;;;;;4.40;1.10;;;;;;;-0.04;81.35;102134.59;6185628;23;20021;-80
2021/03/17 05:15:27;;;;;;;2.63;1.10;;;;;;;-0.18;81.39;102105.53;6185969;23;20396;-80
2021/03/17 05:17:53;;;;;;;1.95;0.90;;;;;;;-0.04;81.12;102129.31;6196418;23;19995;-83
2021/03/17 05:20:22;;;;;;;2.15;1.08;;;;;;;-0.05;80.75;102125.81;6198055;23;20009;-82
2021/03/17 05:22:49;;;;;;;3.05;1.00;;;;;;;0.05;80.31;102135.81;6188131;23;20020;-81
2021/03/17 05:25:19;;;;;;;2.75;0.95;;;;;;;0.09;79.77;102132.88;6187929;23;20407;-81
2021/03/17 05:27:51;;;;;;;1.40;0.68;;;;;;;0.14;79.29;102136.09;6188569;23;20303;-80
2021/03/17 05:30:18;;;;;;;1.20;0.60;;;;;;;0.26;78.80;102149.47;6163852;23;20736;-81
2021/03/17 05:32:47;;;;;;;2.25;0.90;;;;;;;0.30;78.48;102157.13;6166471;23;20027;-81
2021/03/17 05:35:13;;;;;;;1.20;0.60;;;;;;;0.01;78.06;102094.63;6195647;23;20005;-81
2021/03/17 05:37:39;;;;;;;3.47;0.95;;;;;;;0.38;78.19;102162.75;6191045;23;20036;-80
2021/03/17 05:40:11;;;;;;;1.75;0.90;;;;;;;0.28;78.26;102145.78;6166028;23;20028;-81
2021/03/17 05:42:41;;;;;;;1.65;0.80;;;;;;;0.35;78.22;102162.97;6190549;23;20001;-83
2021/03/17 05:45:14;;;;;;;1.45;0.65;;;;;;;0.31;78.08;102150.88;6198238;23;20013;-81
2021/03/17 05:47:48;;;;;;;1.55;0.60;;;;;;;0.35;77.52;102173.53;6170039;23;20044;-82
2021/03/17 05:50:16;;;;;;;4.45;0.90;;;;;;;0.38;77.29;102168.06;6185546;23;20019;-81
2021/03/17 05:52:42;;;;;;;2.55;0.90;;;;;;;0.39;77.72;102167.09;6185556;23;20711;-80
2021/03/17 05:55:09;;;;;;;3.67;0.90;;;;;;;0.41;77.09;102173.16;6163982;23;20087;-82
2021/03/17 05:57:37;;;;;;;5.03;1.35;;;;;;;0.39;77.63;102175.03;6190951;23;20403;-81
2021/03/17 06:00:09;;;;;;;3.42;0.90;;;;;;;0.22;76.85;102149.66;6190639;23;19996;-81
2021/03/17 06:02:39;;;;;;;1.33;0.73;;;;;;;0.38;77.01;102172.50;6190429;23;20004;-81
2021/03/17 06:05:10;;;;;;;2.92;0.75;;;;;;;0.28;76.76;102168.75;6191445;23;20396;-81
2021/03/17 06:07:51;;;;;;;4.18;1.08;;;;;;;0.28;76.51;102184.66;6187493;23;20045;-80
2021/03/17 06:10:17;;;;;;;2.13;0.90;;;;;;;0.27;76.55;102197.03;6188087;23;20487;-81
2021/03/17 06:12:47;;;;;;;3.10;0.90;;;;;;;0.02;76.52;102139.50;6190466;23;20036;-81
2021/03/17 06:15:15;;;;;;;1.52;0.80;;;;;;;0.06;76.23;102156.03;6194716;23;20013;-82
2021/03/17 06:17:43;;;;;;;1.48;0.70;;;;;;;0.22;76.22;102191.16;6187207;23;20005;-81
2021/03/17 06:20:09;;;;;;;1.77;0.70;;;;;;;0.31;76.40;102195.88;6191375;23;20017;-80
2021/03/17 06:22:36;;;;;;;3.70;1.00;;;;;;;0.23;76.14;102184.91;6194469;23;20388;-82
2021/03/17 06:25:06;;;;;;;3.00;0.90;;;;;;;0.27;75.26;102197.03;6171459;23;20048;-79
2021/03/17 06:27:37;;;;;;;4.32;0.90;;;;;;;0.17;75.43;102175.59;6185984;23;20041;-79
2021/03/17 06:30:05;;;;;;;1.67;0.75;;;;;;;0.21;75.33;102184.19;6185957;23;20089;-80
2021/03/17 06:32:32;;;;;;;1.73;0.70;;;;;;;0.11;74.67;102185.72;6193079;23;20028;-81
2021/03/17 06:34:58;;;;;;;1.70;0.90;;;;;;;0.30;74.41;102204.78;6187833;23;20020;-80
2021/03/17 06:37:37;;;;;;;2.88;0.90;;;;;;;0.33;73.78;102207.22;6189049;23;20013;-81
2021/03/17 06:40:18;;;;;;;3.90;1.00;;;;;;;-0.35;73.81;102096.03;6185339;23;20044;-80
2021/03/17 06:42:43;;;;;;;4.75;1.15;;;;;;;0.11;73.88;102169.84;6184503;23;20043;-80
2021/03/17 06:45:10;;;;;;;2.00;0.90;;;;;;;0.23;74.44;102201.69;6185759;23;20024;-79
2021/03/17 06:47:35;;;;;;;2.92;0.80;;;;;;;0.31;73.52;102203.81;6186802;23;20005;-79
2021/03/17 06:50:07;;;;;;;2.55;0.82;;;;;;;0.34;73.43;102208.09;6161247;23;20619;-79
2021/03/17 06:52:41;;;;;;;1.77;0.80;;;;;;;0.23;73.61;102204.31;6184394;23;20005;-79
2021/03/17 06:55:15;;;;;;;3.73;0.70;;;;;;;0.16;73.58;102192.41;6185054;23;20391;-79
2021/03/17 06:57:46;;;;;;;1.83;0.60;;;;;;;0.28;73.14;102219.91;6186066;23;20036;-79
2021/03/17 07:00:22;;;;;;;1.10;0.57;;;;;;;0.21;73.07;102184.19;6181952;23;20019;-79
2021/03/17 07:02:56;;;;;;;2.25;0.73;;;;;;;0.55;72.78;102242.91;6184684;23;20084;-79
2021/03/17 07:05:38;;;;;;;1.67;0.70;;;;;;;0.57;72.12;102239.22;6160520;23;20032;-80
2021/03/17 07:08:07;;;;;;;3.05;0.63;;;;;;;0.39;72.05;102209.47;6183874;23;20411;-79
2021/03/17 07:10:40;;;;;;;2.33;0.52;;;;;;;0.68;71.27;102259.72;6185073;23;20015;-80
2021/03/17 07:13:08;;;;;;;1.42;0.55;;;;;;;0.75;71.72;102255.72;6187310;23;20074;-80
2021/03/17 07:15:35;;;;;;;2.90;0.70;;;;;;;0.76;71.35;102260.06;6184475;23;20013;-80
2021/03/17 07:18:27;;;;;;;2.65;0.80;;;;;;;0.74;70.95;102258.47;6184717;23;20005;-81
2021/03/17 07:21:04;;;;;;;3.03;0.80;;;;;;;0.57;70.67;102235.72;6186585;23;20009;-81
2021/03/17 07:23:35;;;;;;;3.97;0.60;;;;;;;0.74;70.18;102266.44;6185142;23;20009;-80
2021/03/17 07:26:22;;;;;;;2.15;0.68;;;;;;;0.74;69.82;102271.72;6186906;23;20032;-80
2021/03/17 07:28:49;;;;;;;1.27;0.50;;;;;;;0.76;69.33;102265.34;6187012;23;20008;-80
2021/03/17 07:31:15;;;;;;;2.58;0.50;;;;;;;0.97;69.36;102275.53;6186631;23;20009;-81
2021/03/17 07:33:41;;;;;;;1.88;0.55;;;;;;;0.88;68.79;102261.06;6193729;23;20012;-81
2021/03/17 07:36:09;;;;;;;3.28;0.60;;;;;;;0.76;68.21;102262.72;6187864;23;20032;-81
2021/03/17 07:38:35;;;;;;;2.28;0.68;;;;;;;0.98;68.83;102261.31;6185346;23;20013;-80
2021/03/17 07:41:00;;;;;;;7.20;0.50;;;;;;;1.15;68.09;102269.00;6161641;23;20121;-81
2021/03/17 07:43:27;;;;;;;1.27;0.43;;;;;;;1.34;67.87;102273.94;6187489;23;20005;-81
2021/03/17 07:45:53;;;;;;;1.02;0.47;;;;;;;1.27;67.59;102257.59;6186328;23;20426;-81
2021/03/17 07:48:20;;;;;;;2.03;0.60;;;;;;;1.37;67.78;102282.53;6162055;23;20700;-81
2021/03/17 07:50:47;;;;;;;3.15;0.63;;;;;;;1.33;67.94;102289.00;6138105;23;20024;-80
2021/03/17 07:53:23;;;;;;;1.85;0.68;;;;;;;1.00;66.83;102222.31;6163238;23;20027;-80
2021/03/17 07:55:49;;;;;;;4.60;0.90;;;;;;;1.09;66.47;102262.31;6188664;23;20005;-80
2021/03/17 07:58:16;;;;;;;4.65;0.70;;;;;;;1.14;67.21;102270.81;6187263;23;20032;-80
2021/03/17 08:00:43;;;;;;;3.30;0.70;;;;;;;1.13;67.12;102268.28;6188012;23;20430;-80
2021/03/17 08:03:13;;;;;;;0.85;0.40;;;;;;;1.24;66.21;102292.25;6187898;23;20033;-80
2021/03/17 08:05:42;;;;;;;5.07;0.68;;;;;;;1.10;65.59;102279.91;6187305;23;20035;-81
2021/03/17 08:08:08;;;;;;;2.45;0.73;;;;;;;1.33;66.57;102294.31;6187097;23;20039;-80
2021/03/17 08:10:44;;;;;;;2.58;0.52;;;;;;;1.47;66.17;102289.88;6187243;23;20316;-81
2021/03/17 08:13:13;;;;;;;2.17;0.60;;;;;;;1.59;65.98;102279.28;6186617;23;20040;-81
2021/03/17 08:15:39;;;;;;;1.38;0.40;;;;;;;1.53;65.64;102268.25;6186533;23;20009;-80
2021/03/17 08:18:31;;;;;;;1.73;0.40;;;;;;;1.74;64.13;102314.53;6188020;23;20096;-81
2021/03/17 08:20:57;;;;;;;2.10;0.40;;;;;;;1.79;64.61;102312.44;6181064;23;20035;-81
2021/03/17 08:23:43;;;;;;;2.80;0.50;;;;;;;1.98;63.74;102319.09;6137843;23;20311;-81
2021/03/17 08:26:31;;;;;;;2.10;0.50;;;;;;;2.09;63.89;102314.75;6186512;23;20359;-80
2021/03/17 08:28:57;;;;;;;1.00;0.45;;;;;;;2.14;62.74;102317.09;6175131;23;20395;-81
2021/03/17 08:31:38;;;;;;;1.85;0.68;;;;;;;2.17;62.22;102303.59;6189199;23;20024;-81
2021/03/17 08:34:19;;;;;;;1.30;0.40;;;;;;;2.37;61.65;102327.91;6190645;23;20044;-80
2021/03/17 08:36:48;;;;;;;2.92;0.50;;;;;;;2.39;61.33;102320.69;6187749;23;20028;-81
2021/03/17 08:39:39;;;;;;;2.00;0.43;;;;;;;2.46;60.69;102308.66;6187974;23;20315;-81
2021/03/17 08:42:14;;;;;;;2.20;0.45;;;;;;;2.63;60.63;102313.63;6177444;23;20005;-81
2021/03/17 08:44:44;;;;;;;1.45;0.55;;;;;;;2.79;60.93;102319.53;6188324;23;20032;-80
2021/03/17 08:47:43;;;;;;;1.52;0.60;;;;;;;2.66;59.89;102293.94;6187698;23;20048;-81
2021/03/17 08:50:14;;;;;;;1.27;0.40;;;;;;;2.95;59.44;102323.75;6140224;23;20016;-81
2021/03/17 08:52:43;;;;;;;2.15;0.82;;;;;;;3.00;58.55;102324.25;6191046;23;20009;-81
2021/03/17 08:55:34;;;;;;;1.23;0.47;;;;;;;3.02;57.32;102330.31;6191830;23;20008;-80
2021/03/17 08:58:09;;;;;;;1.67;0.40;;;;;;;3.06;55.94;102319.31;6170569;23;20032;-80
2021/03/17 09:01:07;;;;;;;1.02;0.40;;;;;;;3.17;55.78;102318.50;6191233;23;20017;-80
2021/03/17 09:03:38;;;;;;;2.00;0.50;;;;;;;3.27;56.54;102322.19;6118856;23;20009;-81
2021/03/17 09:06:07;;;;;;;3.85;0.40;;;;;;;3.39;56.04;102322.25;6190912;23;20382;-81
2021/03/17 09:09:02;;;;;;;1.35;0.40;;;;;;;3.48;54.32;102345.53;6190807;23;20009;-81
2021/03/17 09:11:49;;;;;;;1.55;0.57;;;;;;;3.50;54.80;102331.09;6191103;23;20000;-81
2021/03/17 09:14:21;;;;;;;2.05;0.20;;;;;;;3.50;54.26;102298.34;6191670;23;20005;-81
2021/03/17 09:17:36;;;;;;;1.25;0.30;;;;;;;3.75;53.92;102339.91;6191941;23;20019;-81
2021/03/17 09:20:11;;;;;;;1.05;0.35;;;;;;;3.74;52.64;102324.88;6176167;23;20024;-82
2021/03/17 09:23:00;;;;;;;0.93;0.40;;;;;;;3.89;51.99;102341.53;6193336;23;20327;-81
2021/03/17 09:25:29;;;;;;;1.55;0.55;;;;;;;4.10;52.91;102336.34;6193916;23;20012;-80
2021/03/17 09:28:02;;;;;;;1.38;0.30;;;;;;;4.03;50.98;102332.47;6195218;23;20031;-81
2021/03/17 09:30:43;;;;;;;3.45;0.47;;;;;;;3.92;51.40;102293.34;6200747;23;20060;-81
2021/03/17 09:33:13;;;;;;;1.13;0.28;;;;;;;4.27;51.91;102324.38;6194884;23;20040;-82
2021/03/17 09:35:40;;;;;;;3.58;0.40;;;;;;;4.36;50.88;102328.97;6197489;23;20012;-82
2021/03/17 09:38:14;;;;;;;0.95;0.30;;;;;;;4.34;49.60;102318.44;6172911;23;20009;-81
2021/03/17 09:40:50;;;;;;;1.10;0.30;;;;;;;4.44;50.06;102327.41;6171199;23;20001;-82
2021/03/17 09:43:30;;;;;;;1.02;0.30;;;;;;;4.51;47.69;102329.59;6193001;23;20000;-81
2021/03/17 09:45:56;;;;;;;1.58;0.30;;;;;;;4.14;47.95;102261.41;6191575;23;20015;-81
2021/03/17 09:48:23;;;;;;;1.65;0.32;;;;;;;4.47;47.38;102318.34;6196229;23;20024;-81
2021/03/17 09:50:59;;;;;;;3.30;0.32;;;;;;;4.51;47.09;102317.09;6198780;23;20024;-81
2021/03/17 09:53:24;;;;;;;1.30;0.20;;;;;;;4.59;47.39;102321.81;6196720;23;20020;-81
2021/03/17 09:55:50;;;;;;;0.70;0.20;;;;;;;4.33;46.12;102279.44;6198794;23;20009;-81
2021/03/17 09:58:16;;;;;;;1.35;0.30;;;;;;;4.59;46.74;102333.31;6198569;23;20024;-82
2021/03/17 10:00:41;;;;;;;0.98;0.35;;;;;;;4.60;46.62;102329.72;6197486;23;20035;-81
2021/03/17 10:03:12;;;;;;;1.27;0.30;;;;;;;4.55;46.48;102325.72;6172523;23;20016;-81
2021/03/17 10:05:39;;;;;;;2.15;0.40;;;;;;;4.77;46.57;102339.03;6175111;23;20001;-81
2021/03/17 10:08:06;;;;;;;1.95;0.30;;;;;;;4.53;47.14;102303.66;6199077;23;20005;-81
2021/03/17 10:10:32;;;;;;;0.73;0.25;;;;;;;4.52;46.29;102302.81;6176035;23;20087;-81
2021/03/17 10:12:57;;;;;;;0.73;0.30;;;;;;;4.82;46.28;102347.47;6200525;23;20044;-81
2021/03/17 10:15:24;;;;;;;1.00;0.30;;;;;;;4.77;45.04;102341.69;6176036;23;20017;-81
2021/03/17 10:17:53;;;;;;;2.58;0.40;;;;;;;4.58;43.47;102320.97;6200694;23;20088;-81
2021/03/17 10:20:25;;;;;;;0.68;0.20;;;;;;;4.66;43.63;102297.19;6202734;23;20009;-81
2021/03/17 10:22:55;;;;;;;1.58;0.38;;;;;;;4.90;43.44;102349.53;6197907;23;20017;-81
2021/03/17 10:25:24;;;;;;;0.70;0.30;;;;;;;4.94;43.12;102353.66;6199702;23;20001;-81
2021/03/17 10:27:58;;;;;;;0.43;0.20;;;;;;;4.97;43.42;102356.09;6201722;23;20068;-80
2021/03/17 10:30:38;;;;;;;1.10;0.30;;;;;;;4.88;42.80;102324.81;6191252;23;20013;-82
2021/03/17 10:33:12;;;;;;;1.73;0.20;;;;;;;4.95;43.91;102336.66;6192323;23;20005;-80
2021/03/17 10:35:38;;;;;;;0.40;0.20;;;;;;;5.00;43.59;102330.94;6192931;23;20069;-80
2021/03/17 10:38:05;;;;;;;1.80;0.20;;;;;;;5.23;42.87;102369.09;6198042;23;20019;-81
2021/03/17 10:40:31;;;;;;;0.30;0.20;;;;;;;5.17;43.53;102331.28;6202486;23;20017;-81
2021/03/17 10:43:05;;;;;;;0.55;0.20;;;;;;;5.38;42.98;102351.81;6198224;23;20063;-81
2021/03/17 10:45:41;;;;;;;1.13;0.20;;;;;;;5.47;42.97;102353.75;6200528;23;20418;-81
2021/03/17 10:48:16;;;;;;;1.85;0.30;;;;;;;5.55;42.20;102356.59;6203223;23;20005;-82
2021/03/17 10:50:42;;;;;;;1.55;0.25;;;;;;;5.57;41.57;102365.34;6198825;23;20064;-81
2021/03/17 10:53:36;;;;;;;1.17;0.30;;;;;;;5.49;40.49;102361.59;6202438;23;20035;-82
2021/03/17 10:56:02;;;;;;;0.80;0.30;;;;;;;5.48;41.47;102366.09;6173560;23;20013;-82
2021/03/17 10:58:30;;;;;;;0.43;0.20;;;;;;;5.53;42.07;102366.59;6201446;23;20065;-82
2021/03/17 11:01:00;;;;;;;0.40;0.20;;;;;;;5.63;41.84;102364.84;6194667;23;20030;-82
2021/03/17 11:03:27;;;;;;;1.45;0.20;;;;;;;5.70;40.96;102378.53;6197597;23;20005;-82
2021/03/17 11:06:20;;;;;;;2.63;0.22;;;;;;;5.56;42.14;102363.66;6196087;23;20017;-82
2021/03/17 11:09:03;;;;;;;1.02;0.20;;;;;;;5.59;42.16;102351.84;6197927;23;20020;-83
2021/03/17 11:11:32;;;;;;;2.70;0.30;;;;;;;5.74;43.40;102371.09;6198743;23;20005;-82
2021/03/17 11:13:58;;;;;;;2.65;0.30;;;;;;;5.85;44.11;102365.69;6197862;23;19997;-82
2021/03/17 11:16:28;;;;;;;0.70;0.30;;;;;;;5.82;43.02;102372.13;6198491;23;20088;-82
2021/03/17 11:18:59;;;;;;;0.85;0.22;;;;;;;5.86;43.89;102372.72;6195618;23;20008;-82
2021/03/17 11:21:31;;;;;;;0.30;0.20;;;;;;;5.76;42.82;102358.44;6172114;23;20013;-82
2021/03/17 11:23:59;;;;;;;0.95;0.30;;;;;;;5.83;43.16;102384.53;6197740;23;20298;-82
2021/03/17 11:26:36;;;;;;;2.47;0.25;;;;;;;5.96;43.37;102376.34;6194888;23;20060;-82
2021/03/17 11:29:31;;;;;;;1.63;0.40;;;;;;;6.12;43.03;102370.53;6195316;23;20036;-81
2021/03/17 11:32:06;;;;;;;1.35;0.40;;;;;;;6.16;42.26;102374.66;6195130;23;20005;-82
2021/03/17 11:34:31;;;;;;;0.82;0.20;;;;;;;5.74;42.57;102309.66;6196802;23;20004;-82
2021/03/17 11:36:57;;;;;;;1.77;0.17;;;;;;;5.92;43.18;102329.44;6171681;23;20071;-82
2021/03/17 11:39:22;;;;;;;1.05;0.30;;;;;;;6.01;43.40;102346.56;6145869;23;20009;-82
2021/03/17 11:41:49;;;;;;;1.60;0.30;;;;;;;6.14;42.50;102375.75;6194789;23;20032;-82
2021/03/17 11:44:22;;;;;;;1.23;0.25;;;;;;;6.26;42.68;102396.94;6193764;23;20005;-82
2021/03/17 11:46:48;;;;;;;2.58;0.30;;;;;;;6.34;41.95;102398.94;6196406;23;20001;-82
2021/03/17 11:49:16;;;;;;;0.77;0.20;;;;;;;6.33;42.00;102405.28;6197900;23;20012;-82